createdAt,value
2023-02-07T00:09:55.252Z,1027.6
2023-02-07T00:20:02.003Z,1027.6
2023-02-07T00:30:08.698Z,1027.6
2023-02-07T00:40:15.468Z,1027.5
2023-02-07T00:50:22.161Z,1027.5
2023-02-07T01:00:28.895Z,1027.4
2023-02-07T01:10:35.600Z,1027.5
2023-02-07T01:20:42.362Z,1027.6
2023-02-07T01:30:49.230Z,1027.6
2023-02-07T01:40:55.820Z,1027.4
2023-02-07T01:51:02.513Z,1027.4
2023-02-07T02:01:09.293Z,1027.4
2023-02-07T02:11:15.944Z,1027.4
2023-02-07T02:21:22.702Z,1027.3
2023-02-07T02:31:29.525Z,1027.4
2023-02-07T02:41:36.164Z,1027.5
2023-02-07T02:51:42.856Z,1027.5
2023-02-07T03:01:50.882Z,1027.4
2023-02-07T03:11:58.764Z,1027.4
2023-02-07T03:22:06.761Z,1027.3
2023-02-07T03:32:14.689Z,1027.2
2023-02-07T03:42:22.668Z,1027.3
2023-02-07T03:52:29.364Z,1027.4
2023-02-07T04:02:36.132Z,1027.3
2023-02-07T04:12:42.821Z,1027.3
2023-02-07T04:22:49.578Z,1027.3
2023-02-07T04:32:56.274Z,1027.2
2023-02-07T04:43:03.071Z,1027.1
2023-02-07T04:53:09.757Z,1027.1
2023-02-07T05:03:16.504Z,1027.1
2023-02-07T05:13:23.206Z,1027.1
2023-02-07T05:23:29.945Z,1027.1
2023-02-07T05:33:36.728Z,1026.9
2023-02-07T05:43:43.418Z,1027
2023-02-07T05:53:51.333Z,1027
2023-02-07T06:03:58.087Z,1027.2
2023-02-07T06:14:04.777Z,1027.2
2023-02-07T06:24:11.627Z,1027.1
2023-02-07T06:34:18.338Z,1027.2
2023-02-07T06:44:24.982Z,1027.3
2023-02-07T06:54:31.707Z,1027.4
2023-02-07T07:04:38.447Z,1027.6
2023-02-07T07:14:45.183Z,1027.7
2023-02-07T07:24:51.912Z,1027.9
2023-02-07T07:34:58.600Z,1028
2023-02-07T07:45:05.364Z,1028.1
2023-02-07T07:55:12.048Z,1028.2
2023-02-07T08:05:18.801Z,1028.3
2023-02-07T08:15:25.483Z,1028.2
2023-02-07T08:25:32.229Z,1028.2
2023-02-07T08:35:38.939Z,1028.2
2023-02-07T08:45:47.114Z,1028.2
2023-02-07T08:55:54.849Z,1028.1
2023-02-07T09:06:02.823Z,1028
2023-02-07T09:16:10.765Z,1028
2023-02-07T09:26:18.739Z,1028
2023-02-07T09:36:26.718Z,1028
2023-02-07T09:46:33.435Z,1028
2023-02-07T09:56:41.409Z,1028
2023-02-07T10:06:48.122Z,1028
2023-02-07T10:16:54.792Z,1028
2023-02-07T10:27:01.583Z,1028
2023-02-07T10:37:08.255Z,1028
2023-02-07T10:47:14.997Z,1028.1
2023-02-07T10:57:23.017Z,1028.1
2023-02-07T11:07:39.428Z,1028
2023-02-07T11:17:36.429Z,1028
2023-02-07T11:27:43.138Z,1028
2023-02-07T11:37:49.841Z,1027.9
2023-02-07T11:47:56.623Z,1027.7
2023-02-07T11:58:03.288Z,1027.7
2023-02-07T12:08:10.057Z,1027.7
2023-02-07T12:18:16.740Z,1027.6
2023-02-07T12:28:24.744Z,1027.6
2023-02-07T12:38:31.442Z,1027.5
2023-02-07T12:48:38.179Z,1027.5
2023-02-07T12:58:44.893Z,1027.4
2023-02-07T13:08:51.643Z,1027.3
2023-02-07T13:18:59.541Z,1027.2
2023-02-07T13:29:06.283Z,1027.2
2023-02-07T13:39:12.984Z,1027.1
2023-02-07T13:49:19.787Z,1027.1
2023-02-07T13:59:26.446Z,1026.9
2023-02-07T14:09:33.209Z,1026.9
2023-02-07T14:19:39.899Z,1027
2023-02-07T14:29:46.638Z,1026.9
2023-02-07T14:39:54.554Z,1026.9
2023-02-07T14:50:01.341Z,1026.8
2023-02-07T15:00:09.247Z,1026.8
2023-02-07T15:10:16.015Z,1026.7
2023-02-07T15:20:23.920Z,1026.7
2023-02-07T15:30:31.954Z,1026.7
2023-02-07T15:40:38.959Z,1026.8
2023-02-07T15:50:45.355Z,1026.9
2023-02-07T16:00:52.092Z,1026.8
2023-02-07T16:10:58.798Z,1026.8
2023-02-07T16:21:06.751Z,1026.8
2023-02-07T16:31:13.565Z,1026.9
2023-02-07T16:41:20.180Z,1026.9
2023-02-07T16:51:26.952Z,1026.9
2023-02-07T17:01:33.647Z,1027.1
2023-02-07T17:11:40.363Z,1027.1
2023-02-07T17:21:47.094Z,1027.2
2023-02-07T17:31:53.875Z,1027.3
2023-02-07T17:42:00.770Z,1027.4
2023-02-07T17:52:07.280Z,1027.4
2023-02-07T18:02:14.013Z,1027.3
2023-02-07T18:12:21.987Z,1027.4
2023-02-07T18:22:28.663Z,1027.4
2023-02-07T18:32:35.432Z,1027.3
2023-02-07T18:42:42.107Z,1027.3
2023-02-07T18:52:48.849Z,1027.2
2023-02-07T19:02:55.594Z,1027.3
2023-02-07T19:13:02.303Z,1027.3
2023-02-07T19:23:09.005Z,1027.3
2023-02-07T19:33:15.815Z,1027.3
2023-02-07T19:43:22.467Z,1027.2
2023-02-07T19:53:29.367Z,1027.1
2023-02-07T20:03:35.959Z,1027.1
2023-02-07T20:13:42.677Z,1027.2
2023-02-07T20:23:49.366Z,1027.2
2023-02-07T20:33:56.123Z,1027.1
2023-02-07T20:44:04.918Z,1027.2
2023-02-07T20:54:09.574Z,1027.1
2023-02-07T21:04:16.277Z,1027.1
2023-02-07T21:14:23.015Z,1027
2023-02-07T21:24:29.749Z,1027.1
2023-02-07T21:34:36.471Z,1027
2023-02-07T21:44:43.165Z,1027
2023-02-07T21:54:51.142Z,1027
2023-02-07T22:04:59.074Z,1027
2023-02-07T22:15:07.065Z,1027.1
2023-02-07T22:25:13.760Z,1027.1
2023-02-07T22:35:20.494Z,1027.1
2023-02-07T22:45:27.214Z,1027.1
2023-02-07T22:55:33.959Z,1027.1
2023-02-07T23:05:40.667Z,1027.2
2023-02-07T23:15:47.450Z,1027.2
2023-02-07T23:25:54.113Z,1027
2023-02-07T23:36:00.851Z,1027.2
2023-02-07T23:46:07.604Z,1027.1
2023-02-07T23:56:14.307Z,1027.1
